Time;durP1;ratioP1;P1;durP2;ratioP2;P2;SDS_P1;SDS_P2;PMS_P1;PMS_P2;Temp;Humidity;BMP_temperature;BMP_pressure;BME280_temperature;BME280_humidity;BME280_pressure;Samples;Min_cycle;Max_cycle;Signal;HPM_P1;HPM_P2
2022/08/01 00:01:08;;;;;;;1.95;1.50;;;;;;;22.54;49.98;100482.31;5019674;28;20735;-66
2022/08/01 00:03:34;;;;;;;2.40;1.67;;;;;;;22.54;49.74;100479.63;5017145;28;20049;-66
2022/08/01 00:06:00;;;;;;;1.95;1.67;;;;;;;22.55;49.43;100479.41;5019579;28;20038;-66
2022/08/01 00:08:27;;;;;;;1.88;1.40;;;;;;;22.52;49.46;100482.53;5019221;28;20068;-66
2022/08/01 00:10:53;;;;;;;1.70;1.20;;;;;;;22.46;49.66;100481.59;5021292;28;20037;-66
2022/08/01 00:13:19;;;;;;;2.90;1.50;;;;;;;22.35;49.90;100476.19;5013201;28;20049;-66
2022/08/01 00:15:46;;;;;;;2.70;1.70;;;;;;;22.30;50.09;100476.88;5018235;28;20029;-66
2022/08/01 00:18:13;;;;;;;3.40;1.80;;;;;;;22.27;50.31;100477.34;5016147;28;20041;-66
2022/08/01 00:20:38;;;;;;;2.83;1.50;;;;;;;22.25;49.72;100476.75;5016411;28;20124;-66
2022/08/01 00:23:04;;;;;;;2.35;1.60;;;;;;;22.25;50.66;100480.25;5021132;28;20124;-66
2022/08/01 00:25:30;;;;;;;2.45;1.60;;;;;;;22.26;50.71;100487.31;5022206;28;20029;-66
2022/08/01 00:27:56;;;;;;;2.50;1.50;;;;;;;22.20;50.21;100488.22;5017198;28;20053;-66
2022/08/01 00:30:23;;;;;;;3.83;1.80;;;;;;;22.18;50.70;100492.16;5026674;28;20419;-66
2022/08/01 00:32:51;;;;;;;2.30;1.75;;;;;;;22.17;51.21;100485.13;5022937;28;20030;-66
2022/08/01 00:35:17;;;;;;;2.58;1.88;;;;;;;22.11;51.09;100502.19;5019867;28;20034;-66
2022/08/01 00:37:44;;;;;;;2.42;1.58;;;;;;;22.03;50.95;100500.66;5013958;28;20143;-66
2022/08/01 00:40:10;;;;;;;2.80;1.73;;;;;;;21.89;51.72;100497.31;5016392;28;20450;-66
2022/08/01 00:42:39;;;;;;;2.50;1.65;;;;;;;21.81;51.68;100497.63;5017484;28;20127;-66
2022/08/01 00:45:05;;;;;;;3.72;1.63;;;;;;;21.73;51.81;100503.31;5021872;28;20545;-66
2022/08/01 00:47:32;;;;;;;1.88;1.35;;;;;;;21.68;52.73;100503.16;5015661;28;20045;-66
2022/08/01 00:49:58;;;;;;;2.67;1.80;;;;;;;21.60;53.07;100501.63;5017529;28;20033;-66
2022/08/01 00:52:24;;;;;;;3.25;1.83;;;;;;;21.55;53.24;100496.91;5016086;28;20038;-66
2022/08/01 00:54:51;;;;;;;2.00;1.50;;;;;;;21.51;52.91;100503.78;5024002;28;20398;-66
2022/08/01 00:57:17;;;;;;;2.83;1.80;;;;;;;21.42;53.73;100510.50;5014214;28;20038;-66
2022/08/01 00:59:43;;;;;;;2.33;1.65;;;;;;;21.37;54.58;100507.63;4981725;28;20048;-66
2022/08/01 01:02:09;;;;;;;2.50;1.60;;;;;;;21.35;53.87;100499.78;5018087;28;20045;-66
2022/08/01 01:04:35;;;;;;;2.15;1.50;;;;;;;21.30;53.93;100506.88;5018759;28;20064;-66
2022/08/01 01:07:17;;;;;;;2.15;1.60;;;;;;;21.29;54.27;100502.56;5022506;28;21898;-66
2022/08/01 01:09:52;;;;;;;2.30;1.70;;;;;;;21.29;54.61;100503.38;5040115;28;20087;-66
2022/08/01 01:12:30;;;;;;;2.33;1.30;;;;;;;21.27;54.30;100501.94;5011327;28;20052;-66
2022/08/01 01:15:02;;;;;;;2.13;1.30;;;;;;;21.23;54.49;100500.75;5022311;28;20175;-66
2022/08/01 01:17:35;;;;;;;2.65;1.40;;;;;;;21.20;54.55;100499.31;5015065;28;20042;-66
2022/08/01 01:20:03;;;;;;;2.50;1.40;;;;;;;21.15;54.91;100497.31;5014185;28;20044;-66
2022/08/01 01:22:53;;;;;;;1.27;1.02;;;;;;;21.11;55.21;100504.16;5016537;28;20383;-66
2022/08/01 01:25:44;;;;;;;2.55;1.20;;;;;;;21.08;54.92;100493.03;5017636;28;20176;-66
2022/08/01 01:28:15;;;;;;;2.75;1.20;;;;;;;21.10;56.18;100501.72;5020060;28;20369;-66
2022/08/01 01:30:44;;;;;;;2.63;1.38;;;;;;;21.11;56.55;100497.97;5023249;28;20034;-66
2022/08/01 01:33:12;;;;;;;1.77;0.93;;;;;;;21.17;56.63;100508.66;5018797;28;20067;-66
2022/08/01 01:35:45;;;;;;;1.50;0.90;;;;;;;21.22;56.60;100508.00;5040357;28;20457;-65
2022/08/01 01:38:18;;;;;;;1.67;1.00;;;;;;;21.26;56.78;100506.50;5011886;28;20094;-66
2022/08/01 01:40:46;;;;;;;2.17;0.85;;;;;;;21.32;56.77;100510.97;5018259;28;20036;-66
2022/08/01 01:43:14;;;;;;;2.58;1.02;;;;;;;21.35;56.76;100515.09;5020835;28;20081;-66
2022/08/01 01:45:44;;;;;;;1.83;0.85;;;;;;;21.36;56.88;100517.56;5015071;28;20034;-66
2022/08/01 01:48:15;;;;;;;1.80;0.90;;;;;;;21.34;56.87;100514.28;5014582;28;20037;-66
2022/08/01 01:50:43;;;;;;;2.33;0.95;;;;;;;21.34;56.96;100508.91;5012326;28;20391;-66
2022/08/01 01:53:12;;;;;;;1.40;0.85;;;;;;;21.37;57.01;100518.38;5025323;28;20049;-66
2022/08/01 01:55:41;;;;;;;1.23;0.80;;;;;;;21.40;57.23;100523.34;5019892;28;20038;-66
2022/08/01 01:58:08;;;;;;;0.90;0.77;;;;;;;21.42;56.92;100526.63;5012336;28;20049;-69
2022/08/01 02:00:37;;;;;;;1.40;0.80;;;;;;;21.47;56.98;100525.97;5023495;28;20116;-66
2022/08/01 02:03:07;;;;;;;1.00;0.80;;;;;;;21.50;56.64;100523.66;5017968;28;20065;-66
2022/08/01 02:05:35;;;;;;;2.65;0.93;;;;;;;21.55;56.92;100523.81;5013680;28;20026;-66
2022/08/01 02:08:03;;;;;;;1.40;0.68;;;;;;;21.60;56.52;100526.66;5016622;28;20044;-66
2022/08/01 02:10:32;;;;;;;2.40;0.70;;;;;;;21.60;56.81;100518.56;5019113;28;20060;-66
2022/08/01 02:13:00;;;;;;;1.27;0.80;;;;;;;21.62;56.60;100515.66;4998266;28;20072;-66
2022/08/01 02:15:29;;;;;;;1.17;0.80;;;;;;;21.62;56.69;100521.88;5001090;28;20038;-65
2022/08/01 02:17:57;;;;;;;1.40;0.80;;;;;;;21.61;56.69;100524.78;5012286;28;20388;-66
2022/08/01 02:20:25;;;;;;;0.85;0.60;;;;;;;21.60;56.73;100517.75;5018469;28;20037;-66
2022/08/01 02:22:55;;;;;;;1.17;0.70;;;;;;;21.59;56.64;100525.00;5019812;28;20464;-66
2022/08/01 02:25:56;;;;;;;1.58;0.68;;;;;;;21.58;57.11;100525.22;5017334;28;20038;-66
2022/08/01 02:28:34;;;;;;;2.22;0.70;;;;;;;21.58;57.17;100527.91;5016758;28;20328;-66
2022/08/01 02:31:08;;;;;;;2.15;0.80;;;;;;;21.58;57.01;100527.91;5012298;28;20030;-66
2022/08/01 02:33:43;;;;;;;1.73;0.90;;;;;;;21.61;57.10;100538.22;5036268;28;20400;-66
2022/08/01 02:36:12;;;;;;;1.45;0.80;;;;;;;21.64;57.12;100532.38;5005750;28;20691;-66
2022/08/01 02:38:43;;;;;;;1.20;0.77;;;;;;;21.68;56.96;100528.22;4998911;28;20459;-66
2022/08/01 02:41:19;;;;;;;1.27;0.73;;;;;;;21.73;56.90;100527.53;5041084;28;20103;-66
2022/08/01 02:43:50;;;;;;;1.08;0.70;;;;;;;21.80;56.92;100531.78;5034151;28;20068;-66
2022/08/01 02:46:25;;;;;;;1.83;0.73;;;;;;;21.86;56.76;100530.06;5027439;28;20081;-66
2022/08/01 02:48:53;;;;;;;1.05;0.80;;;;;;;21.92;56.84;100537.22;5013262;28;20037;-66
2022/08/01 02:51:26;;;;;;;1.23;0.70;;;;;;;21.96;56.79;100533.03;5000414;28;20049;-66
2022/08/01 02:53:55;;;;;;;1.73;0.70;;;;;;;22.00;56.57;100536.09;5017480;28;20037;-66
2022/08/01 02:56:23;;;;;;;1.40;0.82;;;;;;;22.03;56.42;100538.34;5019789;28;20037;-66
2022/08/01 02:58:51;;;;;;;1.02;0.70;;;;;;;22.06;56.32;100536.00;5023364;28;20044;-66
2022/08/01 03:01:19;;;;;;;1.65;0.80;;;;;;;22.04;56.15;100537.28;5016473;28;20033;-67
2022/08/01 03:03:46;;;;;;;1.00;0.80;;;;;;;22.02;56.23;100523.22;5002864;28;20494;-66
2022/08/01 03:06:13;;;;;;;1.45;0.70;;;;;;;21.98;56.44;100528.25;5015661;28;20091;-67
2022/08/01 03:08:39;;;;;;;1.25;0.90;;;;;;;21.91;56.42;100532.91;5015114;28;20068;-66
2022/08/01 03:11:11;;;;;;;1.52;0.93;;;;;;;21.83;56.52;100525.13;5022925;28;20481;-66
2022/08/01 03:13:38;;;;;;;2.08;1.10;;;;;;;21.70;57.14;100533.38;5023941;28;20465;-66
2022/08/01 03:16:05;;;;;;;1.02;0.70;;;;;;;21.58;57.12;100526.03;5013658;28;20045;-66
2022/08/01 03:18:36;;;;;;;1.13;0.73;;;;;;;21.46;57.93;100529.72;5013144;28;20059;-66
2022/08/01 03:21:04;;;;;;;1.00;0.70;;;;;;;21.30;57.92;100529.22;5017829;28;20033;-66
2022/08/01 03:23:32;;;;;;;2.47;1.00;;;;;;;21.17;57.95;100527.47;5020999;28;20034;-66
2022/08/01 03:26:01;;;;;;;2.40;1.08;;;;;;;21.04;58.79;100526.78;5016938;28;20037;-66
2022/08/01 03:28:30;;;;;;;1.00;0.80;;;;;;;20.93;58.66;100531.84;5008596;28;20059;-66
2022/08/01 03:30:58;;;;;;;0.70;0.70;;;;;;;20.86;58.81;100530.25;5017494;28;20034;-66
2022/08/01 03:33:24;;;;;;;0.90;0.77;;;;;;;20.78;58.85;100532.19;5019021;28;20560;-66
2022/08/01 03:35:53;;;;;;;3.10;1.10;;;;;;;20.78;59.36;100531.31;5026225;28;20029;-66
2022/08/01 03:38:23;;;;;;;1.73;0.90;;;;;;;20.78;59.48;100531.31;5020978;28;20041;-66
2022/08/01 03:40:58;;;;;;;1.65;1.05;;;;;;;20.83;59.51;100536.88;5044384;28;20042;-66
2022/08/01 03:43:36;;;;;;;1.95;1.17;;;;;;;20.83;60.02;100531.50;5027001;28;20037;-66
2022/08/01 03:46:07;;;;;;;3.85;1.25;;;;;;;20.85;60.16;100531.28;4984687;28;20168;-66
2022/08/01 03:48:39;;;;;;;1.60;0.80;;;;;;;20.86;59.95;100536.44;5020987;28;20040;-66
2022/08/01 03:51:10;;;;;;;1.73;0.80;;;;;;;20.87;59.80;100531.88;5019709;28;20576;-66
2022/08/01 03:53:38;;;;;;;1.95;1.00;;;;;;;20.87;59.89;100539.94;5014734;28;20528;-66
2022/08/01 03:56:08;;;;;;;1.75;1.17;;;;;;;20.87;60.29;100529.19;5019554;28;20037;-66
2022/08/01 03:58:36;;;;;;;1.38;0.98;;;;;;;20.91;59.85;100536.59;5017444;28;20029;-66
2022/08/01 04:01:04;;;;;;;1.73;1.00;;;;;;;20.97;60.20;100526.84;5020805;28;20041;-66
2022/08/01 04:03:30;;;;;;;2.13;1.10;;;;;;;21.00;59.96;100529.91;5016934;28;20041;-66
2022/08/01 04:05:56;;;;;;;2.13;1.10;;;;;;;21.03;59.73;100534.03;5021703;28;20033;-66
2022/08/01 04:08:22;;;;;;;1.73;1.02;;;;;;;21.07;59.80;100527.19;5017183;28;20122;-66
2022/08/01 04:10:49;;;;;;;1.80;1.20;;;;;;;21.11;59.79;100532.91;5042641;28;20517;-66
2022/08/01 04:13:15;;;;;;;1.58;0.90;;;;;;;21.10;59.82;100540.16;5019856;28;20030;-66
2022/08/01 04:15:41;;;;;;;1.90;1.20;;;;;;;21.08;59.88;100533.38;5020290;28;20491;-66
2022/08/01 04:18:07;;;;;;;1.52;0.90;;;;;;;21.09;60.16;100538.50;5019907;28;20040;-67
2022/08/01 04:20:34;;;;;;;1.70;1.10;;;;;;;21.12;60.39;100535.41;5022060;28;20050;-66
2022/08/01 04:23:00;;;;;;;3.63;1.60;;;;;;;21.17;60.39;100540.94;5007458;28;20065;-66
2022/08/01 04:25:33;;;;;;;1.92;1.23;;;;;;;21.23;60.18;100541.91;5023888;28;20486;-66
2022/08/01 04:28:03;;;;;;;1.90;1.10;;;;;;;21.27;60.11;100540.41;5004670;28;20088;-66
2022/08/01 04:30:33;;;;;;;1.73;1.10;;;;;;;21.33;59.82;100547.63;5019393;28;20041;-66
2022/08/01 04:33:02;;;;;;;2.13;1.15;;;;;;;21.38;59.96;100538.84;5027116;28;20041;-66
2022/08/01 04:35:30;;;;;;;1.60;1.00;;;;;;;21.47;60.05;100542.09;5001901;28;20033;-66
2022/08/01 04:37:58;;;;;;;2.40;1.20;;;;;;;21.54;60.06;100541.00;5022514;28;20041;-66
2022/08/01 04:40:26;;;;;;;1.40;1.00;;;;;;;21.65;59.43;100549.38;5011026;28;20445;-66
2022/08/01 04:42:52;;;;;;;1.48;1.10;;;;;;;21.71;59.58;100543.09;5024075;28;20574;-66
2022/08/01 04:45:18;;;;;;;1.33;1.10;;;;;;;21.79;59.45;100554.38;5018512;28;20029;-66
2022/08/01 04:47:46;;;;;;;1.55;1.23;;;;;;;21.84;59.49;100553.72;5019939;28;20038;-66
2022/08/01 04:50:13;;;;;;;1.95;1.30;;;;;;;21.85;59.60;100553.47;5044099;28;20114;-66
2022/08/01 04:52:41;;;;;;;1.98;1.13;;;;;;;21.92;59.14;100555.25;5026039;28;20033;-66
2022/08/01 04:55:09;;;;;;;1.20;0.95;;;;;;;22.03;59.08;100559.91;5019107;28;20443;-66
2022/08/01 04:57:39;;;;;;;2.65;1.40;;;;;;;22.08;59.18;100564.59;4996070;28;20041;-66
2022/08/01 05:00:06;;;;;;;2.63;1.30;;;;;;;22.05;59.19;100560.50;5020393;28;20167;-66
2022/08/01 05:02:33;;;;;;;2.47;1.15;;;;;;;22.09;59.39;100567.06;5015804;28;20581;-66
2022/08/01 05:04:59;;;;;;;1.55;1.00;;;;;;;22.19;59.14;100563.81;5020764;28;20041;-66
2022/08/01 05:07:25;;;;;;;2.22;1.30;;;;;;;22.27;58.99;100568.94;5021279;28;20048;-66
2022/08/01 05:09:51;;;;;;;2.20;1.30;;;;;;;22.32;58.64;100562.88;5021781;28;20030;-66
2022/08/01 05:12:18;;;;;;;2.17;1.20;;;;;;;22.37;58.55;100561.13;5015495;28;20041;-66
2022/08/01 05:14:45;;;;;;;2.13;1.17;;;;;;;22.48;58.37;100559.53;5015671;28;20038;-66
2022/08/01 05:17:12;;;;;;;2.05;1.10;;;;;;;22.55;58.35;100567.50;5040128;28;20060;-66
2022/08/01 05:19:39;;;;;;;1.60;1.17;;;;;;;22.64;58.44;100566.13;5024388;28;20034;-66
2022/08/01 05:22:07;;;;;;;2.47;1.02;;;;;;;22.82;58.11;100563.34;5014656;28;20085;-66
2022/08/01 05:24:35;;;;;;;1.23;0.90;;;;;;;22.93;58.13;100564.44;5019493;28;20041;-66
2022/08/01 05:27:01;;;;;;;2.05;1.10;;;;;;;23.08;57.70;100570.22;5025330;28;20512;-66
2022/08/01 05:29:28;;;;;;;1.90;1.00;;;;;;;23.23;57.39;100572.44;5017813;28;20049;-66
2022/08/01 05:31:58;;;;;;;2.50;0.98;;;;;;;23.32;57.01;100568.34;5018887;28;20041;-66
2022/08/01 05:34:24;;;;;;;1.53;1.07;;;;;;;23.39;56.69;100568.22;5014746;28;20034;-66
2022/08/01 05:36:50;;;;;;;2.22;1.02;;;;;;;23.40;56.53;100571.75;5012171;28;20313;-66
2022/08/01 05:39:17;;;;;;;1.75;1.00;;;;;;;23.37;56.14;100570.34;5022951;28;20064;-66
2022/08/01 05:41:43;;;;;;;1.55;0.98;;;;;;;23.44;56.02;100576.44;5017757;28;20278;-66
2022/08/01 05:44:09;;;;;;;2.13;1.05;;;;;;;23.51;56.15;100574.44;5024865;28;20099;-66
2022/08/01 05:46:36;;;;;;;1.30;0.95;;;;;;;23.64;55.97;100577.94;5015186;28;20117;-66
2022/08/01 05:49:03;;;;;;;2.10;0.90;;;;;;;23.65;55.99;100582.28;5016313;28;20040;-66
2022/08/01 05:51:29;;;;;;;2.08;0.90;;;;;;;23.63;55.74;100579.81;5013336;28;20132;-66
2022/08/01 05:53:57;;;;;;;2.20;0.90;;;;;;;23.70;55.55;100585.09;5017806;28;20030;-66
2022/08/01 05:56:23;;;;;;;1.73;0.90;;;;;;;23.82;55.35;100579.69;5013327;28;20491;-66
2022/08/01 05:58:51;;;;;;;3.40;1.00;;;;;;;23.94;54.95;100575.09;5014870;28;20057;-66
2022/08/01 06:01:19;;;;;;;1.50;1.00;;;;;;;23.91;54.73;100580.97;5019513;28;20041;-66
2022/08/01 06:03:46;;;;;;;1.77;1.05;;;;;;;23.97;54.67;100587.28;5018898;28;20034;-66
2022/08/01 06:06:13;;;;;;;1.42;1.00;;;;;;;24.08;54.59;100586.44;5014398;28;20070;-67
2022/08/01 06:08:40;;;;;;;1.83;1.00;;;;;;;24.09;54.47;100593.47;5001880;28;20040;-66
2022/08/01 06:11:06;;;;;;;1.52;0.90;;;;;;;24.06;54.63;100593.97;4994952;28;20499;-67
2022/08/01 06:13:31;;;;;;;1.52;0.80;;;;;;;23.96;54.79;100591.88;5019199;28;20067;-66
2022/08/01 06:15:58;;;;;;;1.30;0.90;;;;;;;23.80;55.04;100600.72;5018088;28;20049;-66
2022/08/01 06:18:24;;;;;;;2.28;1.17;;;;;;;23.60;55.57;100599.19;5016831;28;20502;-66
2022/08/01 06:20:50;;;;;;;2.10;1.00;;;;;;;23.48;55.79;100604.59;5023678;28;20041;-67
2022/08/01 06:23:16;;;;;;;1.88;1.02;;;;;;;23.44;56.08;100602.59;5054388;28;20041;-66
2022/08/01 06:25:43;;;;;;;1.65;0.90;;;;;;;23.34;56.15;100607.78;5024053;28;20535;-66
2022/08/01 06:28:09;;;;;;;1.67;1.00;;;;;;;23.27;56.49;100605.19;5020481;28;20705;-66
2022/08/01 06:30:37;;;;;;;1.52;0.90;;;;;;;23.27;56.21;100606.00;5014215;28;20382;-67
2022/08/01 06:33:05;;;;;;;2.05;1.30;;;;;;;23.30;56.93;100607.41;5014714;28;20107;-67
2022/08/01 06:35:31;;;;;;;1.38;0.90;;;;;;;23.36;56.87;100613.72;5020576;28;20120;-66
2022/08/01 06:37:58;;;;;;;1.30;0.90;;;;;;;23.64;56.15;100610.31;5016693;28;20129;-67
2022/08/01 06:40:24;;;;;;;1.40;0.70;;;;;;;24.05;55.43;100614.75;5024246;28;20125;-65
2022/08/01 06:42:53;;;;;;;1.40;0.90;;;;;;;24.32;54.92;100617.72;5026575;28;20037;-66
2022/08/01 06:45:22;;;;;;;2.75;0.80;;;;;;;24.58;54.40;100615.53;5020158;28;20133;-66
2022/08/01 06:47:47;;;;;;;2.00;0.90;;;;;;;24.70;53.85;100620.88;5014823;28;20375;-66
2022/08/01 06:50:14;;;;;;;2.40;0.95;;;;;;;24.62;53.31;100619.38;5016236;28;20096;-66
2022/08/01 06:52:41;;;;;;;1.45;0.90;;;;;;;24.70;53.12;100620.88;5019039;28;20272;-66
2022/08/01 06:55:06;;;;;;;2.60;0.80;;;;;;;24.87;52.97;100623.63;5020303;28;20029;-66
2022/08/01 06:57:32;;;;;;;2.15;0.90;;;;;;;24.96;52.58;100622.97;5024443;28;20091;-66
2022/08/01 07:00:07;;;;;;;1.40;1.00;;;;;;;24.93;52.54;100626.16;5020619;28;20030;-66
2022/08/01 07:02:32;;;;;;;2.50;0.90;;;;;;;24.92;52.34;100626.41;5023890;28;20100;-65
2022/08/01 07:05:00;;;;;;;1.85;0.90;;;;;;;25.06;52.34;100629.63;5019480;28;20498;-65
2022/08/01 07:07:27;;;;;;;1.17;0.70;;;;;;;25.14;51.98;100630.00;5009474;28;20045;-65
2022/08/01 07:09:52;;;;;;;2.22;0.90;;;;;;;25.11;51.61;100627.81;5024884;28;20029;-65
2022/08/01 07:12:19;;;;;;;1.50;1.05;;;;;;;25.21;51.79;100632.59;5019974;28;20091;-65
2022/08/01 07:14:45;;;;;;;1.80;1.15;;;;;;;25.41;51.26;100629.41;5026345;28;20088;-65
2022/08/01 07:17:11;;;;;;;1.00;0.90;;;;;;;25.61;51.15;100626.97;5020503;28;20133;-66
2022/08/01 07:19:37;;;;;;;2.08;1.00;;;;;;;25.84;50.55;100625.94;5022578;28;20045;-66
2022/08/01 07:22:03;;;;;;;1.98;0.98;;;;;;;25.99;50.41;100630.75;5017624;28;20049;-66
2022/08/01 07:24:30;;;;;;;1.33;0.80;;;;;;;26.20;50.10;100628.31;5021678;28;20039;-66
2022/08/01 07:26:57;;;;;;;1.23;0.80;;;;;;;26.32;50.10;100625.47;5001774;28;20072;-66
2022/08/01 07:29:27;;;;;;;1.48;0.80;;;;;;;26.52;49.88;100624.84;5001682;28;20040;-66
2022/08/01 07:31:56;;;;;;;1.63;0.88;;;;;;;27.03;49.41;100619.91;5020241;28;20124;-66
2022/08/01 07:34:23;;;;;;;2.38;0.70;;;;;;;27.44;48.86;100614.84;5023295;28;20038;-66
2022/08/01 07:36:50;;;;;;;0.93;0.70;;;;;;;27.93;48.10;100612.66;5021046;28;20042;-66
2022/08/01 07:39:16;;;;;;;2.13;1.02;;;;;;;28.14;47.06;100610.03;5022862;28;20038;-66
2022/08/01 07:41:45;;;;;;;0.93;0.60;;;;;;;28.78;45.93;100611.56;5023408;28;20033;-66
2022/08/01 07:44:11;;;;;;;1.65;0.70;;;;;;;29.38;44.62;100607.19;5041919;28;20068;-67
2022/08/01 07:46:37;;;;;;;0.75;0.50;;;;;;;30.06;44.29;100611.38;5018468;28;20037;-66
2022/08/01 07:49:04;;;;;;;1.65;0.65;;;;;;;30.31;44.15;100615.06;5018947;28;20030;-67
2022/08/01 07:51:29;;;;;;;0.50;0.50;;;;;;;30.74;43.18;100602.50;5019249;28;20176;-67
2022/08/01 07:53:56;;;;;;;1.80;0.60;;;;;;;31.21;41.47;100611.97;5016554;28;20056;-67
2022/08/01 07:56:23;;;;;;;1.50;0.70;;;;;;;31.51;40.87;100602.66;5020039;28;20130;-67
2022/08/01 07:58:50;;;;;;;0.68;0.50;;;;;;;32.01;40.67;100598.81;5017316;28;20557;-67
2022/08/01 08:01:17;;;;;;;1.92;0.65;;;;;;;32.20;38.21;100601.56;5022059;28;20593;-67
2022/08/01 08:03:44;;;;;;;1.58;0.60;;;;;;;32.76;37.74;100604.31;5023306;28;20025;-67
2022/08/01 08:06:13;;;;;;;1.80;0.60;;;;;;;33.30;35.98;100596.56;5018820;28;20571;-67
2022/08/01 08:08:39;;;;;;;1.95;0.60;;;;;;;33.87;33.79;100599.00;5020606;28;20447;-67
2022/08/01 08:11:05;;;;;;;2.03;0.70;;;;;;;34.30;33.53;100600.56;5023165;28;20127;-67
2022/08/01 08:13:32;;;;;;;2.08;0.50;;;;;;;34.60;33.04;100607.31;5024918;28;20331;-67
2022/08/01 08:15:59;;;;;;;1.83;0.60;;;;;;;34.62;33.20;100605.06;5027620;28;20045;-67
2022/08/01 08:18:25;;;;;;;0.73;0.52;;;;;;;34.07;33.35;100605.19;5019162;28;20041;-67
2022/08/01 08:20:52;;;;;;;1.40;0.60;;;;;;;33.44;34.05;100604.75;5018627;28;20067;-67
2022/08/01 08:26:03;;;;;;;0.75;0.60;;;;;;;31.71;35.55;100612.53;5024121;28;20500;-67
2022/08/01 08:28:29;;;;;;;1.75;0.60;;;;;;;31.33;36.47;100606.91;5024315;28;20048;-67
2022/08/01 08:30:56;;;;;;;0.88;0.60;;;;;;;30.85;36.88;100612.28;5023503;28;20038;-66
2022/08/01 08:33:22;;;;;;;2.83;1.10;;;;;;;30.58;37.73;100607.28;5024269;28;20065;-67
2022/08/01 08:35:48;;;;;;;1.10;0.80;;;;;;;30.57;37.41;100604.81;5019178;28;20063;-67
2022/08/01 08:38:14;;;;;;;1.73;0.70;;;;;;;30.46;37.58;100604.88;5019359;28;20603;-66
2022/08/01 08:40:40;;;;;;;1.15;0.60;;;;;;;30.79;37.92;100605.19;5023094;28;20116;-67
2022/08/01 08:43:06;;;;;;;1.95;0.70;;;;;;;30.64;37.38;100605.31;5023959;28;20037;-67
2022/08/01 08:45:34;;;;;;;1.80;0.70;;;;;;;30.12;38.08;100604.78;5026782;28;20041;-67
2022/08/01 08:48:00;;;;;;;1.00;0.60;;;;;;;30.01;38.54;100606.75;5024813;28;20030;-67
2022/08/01 08:50:27;;;;;;;1.33;0.73;;;;;;;31.10;37.78;100599.50;5022526;28;20049;-66
2022/08/01 08:52:56;;;;;;;1.02;0.60;;;;;;;32.26;36.28;100601.19;5004606;28;20124;-67
2022/08/01 08:55:24;;;;;;;0.80;0.60;;;;;;;33.78;34.72;100600.84;5013275;28;20414;-67
2022/08/01 08:57:54;;;;;;;1.77;0.80;;;;;;;34.96;31.89;100601.72;5038915;28;20167;-67
2022/08/01 09:00:20;;;;;;;2.10;0.63;;;;;;;34.60;32.46;100596.34;5020719;28;20041;-67
2022/08/01 09:02:55;;;;;;;0.90;0.60;;;;;;;34.39;32.89;100587.72;5024591;28;20029;-67
2022/08/01 09:05:27;;;;;;;1.15;0.60;;;;;;;35.71;31.29;100591.78;5019904;28;20041;-67
2022/08/01 09:07:53;;;;;;;0.93;0.60;;;;;;;36.90;28.85;100600.78;5014158;28;20075;-67
2022/08/01 09:10:21;;;;;;;1.33;0.60;;;;;;;37.74;28.38;100590.09;5018283;28;20041;-67
2022/08/01 09:13:12;;;;;;;0.60;0.50;;;;;;;38.25;28.07;100593.63;5024173;28;20399;-67
2022/08/01 09:15:46;;;;;;;2.28;0.63;;;;;;;38.53;27.58;100595.88;5021144;28;20073;-67
2022/08/01 09:18:40;;;;;;;0.73;0.47;;;;;;;38.93;26.93;100589.81;5018585;28;20029;-68
2022/08/01 09:21:06;;;;;;;1.13;0.50;;;;;;;39.29;26.17;100586.28;5022923;28;20429;-67
2022/08/01 09:23:42;;;;;;;0.50;0.50;;;;;;;39.07;25.16;100593.06;5024465;28;20052;-67
2022/08/01 09:26:18;;;;;;;1.10;0.70;;;;;;;38.71;25.62;100592.94;5037995;28;20128;-68
2022/08/01 09:28:48;;;;;;;1.50;0.55;;;;;;;39.12;24.72;100605.03;5014847;28;20038;-68
2022/08/01 09:31:18;;;;;;;;;;;;;;;38.91;25.31;100603.16;5015394;28;20026;-67
2022/08/01 09:33:53;;;;;;;0.98;0.60;;;;;;;38.50;25.82;100602.09;5018666;28;20352;-67
2022/08/01 09:36:22;;;;;;;1.25;0.60;;;;;;;38.03;26.63;100605.84;5016770;28;20037;-67
2022/08/01 09:38:52;;;;;;;1.20;0.50;;;;;;;36.76;27.42;100600.16;5020132;28;20033;-67
2022/08/01 09:41:30;;;;;;;1.27;0.60;;;;;;;36.02;28.25;100603.78;5018278;28;20045;-68
2022/08/01 09:44:00;;;;;;;1.67;0.73;;;;;;;35.63;28.47;100611.00;5018107;28;20412;-67
2022/08/01 09:46:26;;;;;;;;;;;;;;;34.18;29.70;100609.34;5026522;28;20093;-67
2022/08/01 09:49:04;;;;;;;1.42;0.60;;;;;;;33.49;31.12;100599.22;5023305;28;20458;-67
2022/08/01 09:51:37;;;;;;;1.02;0.85;;;;;;;33.03;32.17;100607.44;5016047;28;20479;-66
2022/08/01 09:54:06;;;;;;;1.95;0.80;;;;;;;32.45;32.72;100603.13;5023546;28;20063;-67
2022/08/01 09:56:38;;;;;;;1.77;0.90;;;;;;;32.15;33.61;100603.28;5021334;28;20049;-67
2022/08/01 09:59:05;;;;;;;1.60;0.90;;;;;;;31.74;34.03;100613.88;5017130;28;20056;-67
2022/08/01 10:01:48;;;;;;;;;;;;;;;31.07;34.95;100611.81;5024207;28;20053;-67
2022/08/01 10:04:19;;;;;;;1.08;0.70;;;;;;;31.10;34.59;100605.75;5023501;28;19932;-67
2022/08/01 10:06:52;;;;;;;1.50;0.73;;;;;;;32.16;34.15;100599.44;5017706;28;20037;-67
2022/08/01 10:09:33;;;;;;;1.30;0.60;;;;;;;33.45;32.34;100595.44;5020641;28;20026;-67
2022/08/01 10:12:01;;;;;;;1.75;0.80;;;;;;;33.04;32.88;100598.94;5021952;28;20042;-67
2022/08/01 10:14:27;;;;;;;1.98;0.90;;;;;;;33.35;31.71;100598.38;5010961;28;20100;-67
2022/08/01 10:16:55;;;;;;;;;;;;;;;32.33;33.04;100595.38;5013618;28;20041;-67
2022/08/01 10:19:23;;;;;;;0.98;0.70;;;;;;;31.84;33.60;100585.59;5013122;28;19917;-67
2022/08/01 10:21:52;;;;;;;;;;;;;;;31.91;34.20;100586.84;5004035;28;20045;-67
2022/08/01 10:24:19;;;;;;;;;;;;;;;32.95;32.64;100592.50;5019717;28;19924;-67
2022/08/01 10:26:47;;;;;;;;;;;;;;;34.56;31.47;100598.03;5016275;28;19927;-67
2022/08/01 10:29:13;;;;;;;;;;;;;;;36.60;28.92;100586.06;5016382;28;19921;-67
2022/08/01 10:31:39;;;;;;;1.52;0.85;;;;;;;37.73;26.72;100582.94;5019531;28;19966;-67
2022/08/01 10:34:05;;;;;;;1.92;0.70;;;;;;;37.89;25.48;100582.38;5018969;28;20472;-67
2022/08/01 10:36:33;;;;;;;1.90;0.85;;;;;;;38.24;25.03;100580.97;5019369;28;20072;-67
2022/08/01 10:39:00;;;;;;;1.10;0.80;;;;;;;38.62;24.97;100582.78;5008739;28;20045;-67
2022/08/01 10:41:25;;;;;;;1.02;0.60;;;;;;;39.89;24.64;100586.63;5023434;28;20129;-67
2022/08/01 10:43:52;;;;;;;0.82;0.60;;;;;;;41.30;23.23;100580.25;5026180;28;20128;-67
2022/08/01 10:46:20;;;;;;;0.77;0.60;;;;;;;41.77;22.35;100587.72;5011786;28;20076;-68
2022/08/01 10:48:48;;;;;;;0.70;0.50;;;;;;;41.75;22.67;100585.28;5022991;28;20395;-67
2022/08/01 10:51:16;;;;;;;0.90;0.55;;;;;;;42.18;21.30;100585.44;5015035;28;20601;-67
2022/08/01 10:53:50;;;;;;;;;;;;;;;43.52;20.56;100581.91;5020086;28;20053;-68
2022/08/01 10:56:17;;;;;;;0.80;0.40;;;;;;;44.47;19.32;100575.25;5021706;28;19927;-68
2022/08/01 10:58:46;;;;;;;0.80;0.57;;;;;;;42.73;20.62;100572.22;5022102;28;20037;-68
2022/08/01 11:01:14;;;;;;;1.45;0.60;;;;;;;41.95;21.22;100579.75;5016382;28;20429;-67
2022/08/01 11:03:55;;;;;;;0.95;0.60;;;;;;;41.51;21.44;100577.19;5015874;28;20339;-67
2022/08/01 11:06:28;;;;;;;0.60;0.47;;;;;;;41.06;21.83;100573.69;5022837;28;20117;-68
2022/08/01 11:08:54;;;;;;;2.15;0.70;;;;;;;39.54;22.85;100575.22;4999856;28;20045;-67
2022/08/01 11:11:21;;;;;;;1.00;0.65;;;;;;;40.16;22.40;100567.63;5026236;28;20045;-67
2022/08/01 11:14:33;;;;;;;1.48;0.60;;;;;;;40.82;21.41;100560.00;5016477;28;20757;-67
2022/08/01 11:16:55;;;;;;;1.25;0.70;;;;;;;41.54;21.17;100562.59;5023727;28;20285;-67
2022/08/01 11:19:22;;;;;;;0.95;0.70;;;;;;;39.42;22.96;100564.97;5024532;28;20095;-67
2022/08/01 11:21:55;;;;;;;0.93;0.68;;;;;;;38.50;23.79;100555.13;5018521;28;20029;-67
2022/08/01 11:24:45;;;;;;;1.77;0.70;;;;;;;38.38;23.70;100555.84;5019888;28;20120;-67
2022/08/01 11:27:21;;;;;;;;;;;;;;;36.98;24.85;100549.50;5022805;28;20458;-67
2022/08/01 11:30:09;;;;;;;0.60;0.50;;;;;;;36.52;25.75;100553.81;5023129;28;19987;-68
2022/08/01 11:33:08;;;;;;;1.60;0.80;;;;;;;38.77;23.96;100547.34;5016744;28;20118;-67
2022/08/01 11:35:36;;;;;;;1.50;0.70;;;;;;;39.95;22.68;100551.19;5027161;28;20038;-68
2022/08/01 11:38:27;;;;;;;0.95;0.60;;;;;;;41.39;21.87;100547.56;5021064;28;20470;-67